Back to Top

Language: 

My Weather Underground Personal Weather Station Historical Data with Graphs...

Delerius Weather Station Historical Data
Daily Summary for May 6, 2017 Units:  English    Metric   Both
« Previous Day
Next Day »
Daily Weekly Monthly Yearly Custom
  High: Low: Average:
Temperature: 53.1 °F 43.5 °F 48.5 °F
Dew Point: 46.2 °F 40.5 °F 44 °F
Humidity: 93 % 71 % 85 %
Wind Speed: 10.0 mph 1.0 mph 5.3 mph
Wind Gust: 18.0 mph - -
Wind:- - ENE
Pressure: 30.11 in 29.99 in -
Precipitation: 0.00 in    
Historical Graphs
 
 
Tabular Data for May 6, 2017
Time Temperature Dew Point Pressure Wind Wind Speed Wind Gust Humidity Rainfall Rate (Hourly) solar Conditions
00:02 43.9 °F 40.8 °F 30.11 in NE 5.0 mph 10.0 mph 89 % 0.00 in 0 W/m2
00:07 43.7 °F 40.7 °F 30.11 in NE 4.0 mph 9.0 mph 89 % 0.00 in 0 W/m2
00:12 43.7 °F 40.7 °F 30.11 in NE 4.0 mph 9.0 mph 89 % 0.00 in 0 W/m2
00:17 43.5 °F 40.5 °F 30.11 in ENE 4.0 mph 9.0 mph 89 % 0.00 in 0 W/m2
00:22 43.7 °F 41.0 °F 30.11 in NE 4.0 mph 10.0 mph 90 % 0.00 in 0 W/m2
00:27 43.7 °F 41.0 °F 30.11 in NE 5.0 mph 11.0 mph 90 % 0.00 in 0 W/m2
00:32 43.7 °F 41.0 °F 30.11 in ENE 3.0 mph 11.0 mph 90 % 0.00 in 0 W/m2
00:37 43.7 °F 41.0 °F 30.11 in NE 3.0 mph 8.0 mph 90 % 0.00 in 0 W/m2
00:38 43.7 °F 41.0 °F 30.11 in NE 3.0 mph 8.0 mph 90 % 0.00 in 0 W/m2
00:44 43.9 °F 41.1 °F 30.11 in NE 3.0 mph 7.0 mph 90 % 0.00 in 0 W/m2
00:49 43.9 °F 41.1 °F 30.11 in NE 3.0 mph 8.0 mph 90 % 0.00 in 0 W/m2
00:54 43.9 °F 41.1 °F 30.11 in NE 4.0 mph 8.0 mph 90 % 0.00 in 0 W/m2
00:59 43.9 °F 41.1 °F 30.11 in NE 3.0 mph 8.0 mph 90 % 0.00 in 0 W/m2
01:04 43.9 °F 41.1 °F 30.11 in NE 4.0 mph 10.0 mph 90 % 0.00 in 0 W/m2
01:09 43.9 °F 41.1 °F 30.11 in NE 4.0 mph 10.0 mph 90 % 0.00 in 0 W/m2
01:14 43.9 °F 41.1 °F 30.11 in NE 4.0 mph 9.0 mph 90 % 0.00 in 0 W/m2
01:19 43.9 °F 41.1 °F 30.10 in NE 4.0 mph 11.0 mph 90 % 0.00 in 0 W/m2
01:24 43.9 °F 41.4 °F 30.10 in NNE 4.0 mph 11.0 mph 91 % 0.00 in 0 W/m2
01:29 43.9 °F 41.4 °F 30.10 in NE 4.0 mph 9.0 mph 91 % 0.00 in 0 W/m2
01:34 44.1 °F 41.6 °F 30.10 in NE 4.0 mph 9.0 mph 91 % 0.00 in 0 W/m2
01:39 44.1 °F 41.6 °F 30.10 in NE 3.0 mph 9.0 mph 91 % 0.00 in 0 W/m2
01:44 44.1 °F 41.6 °F 30.09 in NE 4.0 mph 9.0 mph 91 % 0.00 in 0 W/m2
01:49 44.1 °F 41.6 °F 30.09 in NE 5.0 mph 8.0 mph 91 % 0.00 in 0 W/m2
01:54 44.1 °F 41.6 °F 30.09 in NE 5.0 mph 10.0 mph 91 % 0.00 in 0 W/m2
01:59 44.1 °F 41.6 °F 30.09 in NE 6.0 mph 11.0 mph 91 % 0.00 in 0 W/m2
02:04 44.1 °F 41.6 °F 30.09 in NNE 7.0 mph 12.0 mph 91 % 0.00 in 0 W/m2
02:09 44.1 °F 41.6 °F 30.09 in NNE 7.0 mph 12.0 mph 91 % 0.00 in 0 W/m2
02:14 44.1 °F 41.6 °F 30.09 in NE 6.0 mph 11.0 mph 91 % 0.00 in 0 W/m2
02:19 44.1 °F 41.6 °F 30.09 in NE 6.0 mph 12.0 mph 91 % 0.00 in 0 W/m2
02:24 44.1 °F 41.6 °F 30.08 in NE 7.0 mph 14.0 mph 91 % 0.00 in 0 W/m2
02:29 44.1 °F 41.6 °F 30.08 in NE 6.0 mph 14.0 mph 91 % 0.00 in 0 W/m2
02:34 44.1 °F 41.6 °F 30.08 in NE 6.0 mph 11.0 mph 91 % 0.00 in 0 W/m2
02:39 44.1 °F 41.6 °F 30.08 in NE 7.0 mph 11.0 mph 91 % 0.00 in 0 W/m2
02:44 44.1 °F 41.6 °F 30.08 in NE 6.0 mph 10.0 mph 91 % 0.00 in 0 W/m2
02:49 44.1 °F 41.6 °F 30.08 in NE 5.0 mph 9.0 mph 91 % 0.00 in 0 W/m2
02:54 44.1 °F 41.6 °F 30.08 in NE 5.0 mph 11.0 mph 91 % 0.00 in 0 W/m2
02:59 44.1 °F 41.6 °F 30.08 in NE 5.0 mph 11.0 mph 91 % 0.00 in 0 W/m2
03:05 44.2 °F 41.8 °F 30.08 in NE 5.0 mph 10.0 mph 91 % 0.00 in 0 W/m2
03:10 44.2 °F 41.8 °F 30.08 in NE 5.0 mph 10.0 mph 91 % 0.00 in 0 W/m2
03:15 44.2 °F 41.8 °F 30.07 in NE 5.0 mph 10.0 mph 91 % 0.00 in 0 W/m2
03:20 44.2 °F 42.1 °F 30.07 in NE 6.0 mph 13.0 mph 92 % 0.00 in 0 W/m2
03:25 44.2 °F 42.1 °F 30.07 in NE 7.0 mph 13.0 mph 92 % 0.00 in 0 W/m2
03:30 44.4 °F 42.2 °F 30.07 in NE 6.0 mph 11.0 mph 92 % 0.00 in 0 W/m2
03:35 44.4 °F 42.2 °F 30.07 in NE 4.0 mph 9.0 mph 92 % 0.00 in 0 W/m2
03:40 44.4 °F 42.2 °F 30.07 in NE 5.0 mph 10.0 mph 92 % 0.00 in 0 W/m2
03:45 44.4 °F 42.2 °F 30.06 in NE 6.0 mph 12.0 mph 92 % 0.00 in 0 W/m2
03:50 44.4 °F 42.2 °F 30.06 in NE 6.0 mph 12.0 mph 92 % 0.00 in 0 W/m2
03:55 44.4 °F 42.2 °F 30.06 in NE 5.0 mph 11.0 mph 92 % 0.00 in 0 W/m2
04:00 44.4 °F 42.2 °F 30.06 in NE 5.0 mph 12.0 mph 92 % 0.00 in 0 W/m2
04:05 44.4 °F 42.2 °F 30.06 in NE 5.0 mph 12.0 mph 92 % 0.00 in 0 W/m2
04:10 44.4 °F 42.2 °F 30.06 in NE 4.0 mph 11.0 mph 92 % 0.00 in 0 W/m2
04:15 44.4 °F 42.2 °F 30.06 in NE 4.0 mph 8.0 mph 92 % 0.00 in 0 W/m2
04:20 44.4 °F 42.2 °F 30.05 in NE 5.0 mph 11.0 mph 92 % 0.00 in 0 W/m2
04:25 44.6 °F 42.4 °F 30.05 in NE 5.0 mph 11.0 mph 92 % 0.00 in 0 W/m2
04:30 44.6 °F 42.4 °F 30.05 in ENE 5.0 mph 11.0 mph 92 % 0.00 in 0 W/m2
04:35 44.6 °F 42.4 °F 30.05 in ENE 6.0 mph 12.0 mph 92 % 0.00 in 0 W/m2
04:40 44.8 °F 42.6 °F 30.05 in ENE 5.0 mph 12.0 mph 92 % 0.00 in 0 W/m2
04:45 44.6 °F 42.4 °F 30.05 in ENE 7.0 mph 13.0 mph 92 % 0.00 in 0 W/m2
04:50 44.6 °F 42.4 °F 30.05 in ENE 7.0 mph 13.0 mph 92 % 0.00 in 0 W/m2
04:55 44.8 °F 42.6 °F 30.05 in ENE 6.0 mph 13.0 mph 92 % 0.00 in 0 W/m2
05:00 44.8 °F 42.6 °F 30.05 in ENE 7.0 mph 13.0 mph 92 % 0.00 in 0 W/m2
05:05 44.8 °F 42.6 °F 30.05 in ENE 6.0 mph 11.0 mph 92 % 0.00 in 0 W/m2
05:10 44.8 °F 42.6 °F 30.05 in ENE 6.0 mph 11.0 mph 92 % 0.00 in 0 W/m2
05:11 44.8 °F 42.6 °F 30.04 in ENE 6.0 mph 11.0 mph 92 % 0.00 in 0 W/m2
05:16 44.8 °F 42.6 °F 30.04 in ENE 6.0 mph 11.0 mph 92 % 0.00 in 0 W/m2
05:21 44.8 °F 42.6 °F 30.04 in ENE 6.0 mph 12.0 mph 92 % 0.00 in 0 W/m2
05:26 45.0 °F 42.8 °F 30.04 in ENE 6.0 mph 12.0 mph 92 % 0.00 in 0 W/m2
05:31 45.0 °F 42.8 °F 30.04 in ENE 6.0 mph 12.0 mph 92 % 0.00 in 0 W/m2
05:37 45.0 °F 42.8 °F 30.04 in ENE 5.0 mph 12.0 mph 92 % 0.00 in 0 W/m2
05:42 45.0 °F 42.8 °F 30.04 in ENE 5.0 mph 12.0 mph 92 % 0.00 in 0 W/m2
05:47 45.0 °F 42.8 °F 30.04 in ENE 6.0 mph 11.0 mph 92 % 0.00 in 0 W/m2
05:52 45.0 °F 42.8 °F 30.04 in ENE 5.0 mph 12.0 mph 92 % 0.00 in 5 W/m2
05:57 45.0 °F 42.8 °F 30.04 in ENE 6.0 mph 12.0 mph 92 % 0.00 in 11 W/m2
06:02 45.0 °F 42.8 °F 30.03 in NE 7.0 mph 12.0 mph 92 % 0.00 in 14 W/m2
06:07 45.0 °F 42.8 °F 30.03 in NE 6.0 mph 11.0 mph 92 % 0.00 in 14 W/m2
06:12 45.0 °F 42.8 °F 30.03 in NE 5.0 mph 10.0 mph 92 % 0.00 in 9 W/m2
06:17 45.0 °F 42.8 °F 30.03 in NE 5.0 mph 13.0 mph 92 % 0.00 in 12 W/m2
06:22 45.0 °F 42.8 °F 30.03 in NE 5.0 mph 13.0 mph 92 % 0.00 in 9 W/m2
06:27 45.0 °F 42.8 °F 30.03 in NE 5.0 mph 11.0 mph 92 % 0.00 in 9 W/m2
06:32 45.0 °F 42.8 °F 30.03 in NE 6.0 mph 13.0 mph 92 % 0.00 in 11 W/m2
06:37 45.1 °F 43.0 °F 30.03 in NE 7.0 mph 13.0 mph 92 % 0.00 in 11 W/m2
06:42 45.1 °F 43.2 °F 30.03 in ENE 7.0 mph 11.0 mph 93 % 0.00 in 12 W/m2
06:47 45.1 °F 43.2 °F 30.02 in ENE 6.0 mph 11.0 mph 93 % 0.00 in 12 W/m2
06:52 45.1 °F 43.2 °F 30.02 in ENE 5.0 mph 10.0 mph 93 % 0.00 in 12 W/m2
06:57 45.1 °F 43.0 °F 30.03 in NE 5.0 mph 11.0 mph 92 % 0.00 in 12 W/m2
07:02 45.1 °F 43.2 °F 30.02 in NE 6.0 mph 11.0 mph 93 % 0.00 in 14 W/m2
07:07 45.3 °F 43.4 °F 30.02 in NE 5.0 mph 11.0 mph 93 % 0.00 in 14 W/m2
07:12 45.3 °F 43.4 °F 30.02 in NE 5.0 mph 11.0 mph 93 % 0.00 in 16 W/m2
07:17 45.3 °F 43.1 °F 30.02 in NE 5.0 mph 11.0 mph 92 % 0.00 in 14 W/m2
07:22 45.3 °F 43.1 °F 30.02 in NE 5.0 mph 11.0 mph 92 % 0.00 in 14 W/m2
07:27 45.3 °F 43.1 °F 30.02 in NE 6.0 mph 11.0 mph 92 % 0.00 in 26 W/m2
07:32 45.3 °F 43.1 °F 30.02 in ENE 6.0 mph 10.0 mph 92 % 0.00 in 25 W/m2
07:37 45.3 °F 43.1 °F 30.03 in ENE 5.0 mph 10.0 mph 92 % 0.00 in 21 W/m2
07:42 45.5 °F 43.6 °F 30.03 in ENE 5.0 mph 10.0 mph 93 % 0.00 in 39 W/m2
07:47 45.7 °F 43.8 °F 30.03 in ENE 5.0 mph 8.0 mph 93 % 0.00 in 30 W/m2
07:52 45.7 °F 43.8 °F 30.03 in ENE 5.0 mph 10.0 mph 93 % 0.00 in 26 W/m2
07:57 45.9 °F 44.0 °F 30.02 in ENE 5.0 mph 10.0 mph 93 % 0.00 in 19 W/m2
08:02 45.9 °F 44.0 °F 30.02 in ENE 5.0 mph 9.0 mph 93 % 0.00 in 28 W/m2
08:08 45.9 °F 44.0 °F 30.02 in ENE 5.0 mph 9.0 mph 93 % 0.00 in 18 W/m2
08:13 46.0 °F 44.1 °F 30.02 in East 4.0 mph 8.0 mph 93 % 0.00 in 18 W/m2
08:18 46.0 °F 44.1 °F 30.02 in East 4.0 mph 10.0 mph 93 % 0.00 in 23 W/m2
08:23 46.2 °F 44.3 °F 30.02 in ENE 4.0 mph 10.0 mph 93 % 0.00 in 18 W/m2
08:28 46.2 °F 44.3 °F 30.02 in ENE 3.0 mph 9.0 mph 93 % 0.00 in 23 W/m2
08:33 46.4 °F 44.2 °F 30.02 in ENE 3.0 mph 7.0 mph 92 % 0.00 in 19 W/m2
08:38 46.6 °F 44.4 °F 30.02 in NE 3.0 mph 8.0 mph 92 % 0.00 in 23 W/m2
08:43 46.6 °F 44.4 °F 30.02 in ENE 3.0 mph 8.0 mph 92 % 0.00 in 51 W/m2
08:48 46.8 °F 44.6 °F 30.02 in ENE 4.0 mph 11.0 mph 92 % 0.00 in 51 W/m2
08:53 46.9 °F 44.7 °F 30.02 in ENE 5.0 mph 11.0 mph 92 % 0.00 in 44 W/m2
08:58 46.9 °F 44.7 °F 30.02 in ENE 5.0 mph 13.0 mph 92 % 0.00 in 46 W/m2
09:03 47.1 °F 44.6 °F 30.02 in ENE 5.0 mph 13.0 mph 91 % 0.00 in 35 W/m2
09:08 47.1 °F 44.6 °F 30.02 in ENE 5.0 mph 11.0 mph 91 % 0.00 in 49 W/m2
09:13 47.5 °F 44.7 °F 30.02 in ENE 6.0 mph 11.0 mph 90 % 0.00 in 62 W/m2
09:18 47.5 °F 44.4 °F 30.02 in ENE 6.0 mph 11.0 mph 89 % 0.00 in 74 W/m2
09:23 47.7 °F 44.6 °F 30.02 in ENE 7.0 mph 12.0 mph 89 % 0.00 in 84 W/m2
09:28 47.8 °F 44.5 °F 30.02 in ENE 6.0 mph 12.0 mph 88 % 0.00 in 93 W/m2
09:33 48.0 °F 44.6 °F 30.02 in ENE 6.0 mph 11.0 mph 88 % 0.00 in 86 W/m2
09:38 48.2 °F 44.2 °F 30.02 in ENE 6.0 mph 12.0 mph 86 % 0.00 in 79 W/m2
09:43 48.4 °F 44.4 °F 30.02 in ENE 7.0 mph 12.0 mph 86 % 0.00 in 97 W/m2
09:48 48.4 °F 44.1 °F 30.02 in ENE 7.0 mph 13.0 mph 85 % 0.00 in 102 W/m2
09:53 48.6 °F 44.3 °F 30.02 in ENE 6.0 mph 13.0 mph 85 % 0.00 in 93 W/m2
09:58 48.6 °F 44.3 °F 30.02 in ENE 6.0 mph 11.0 mph 85 % 0.00 in 109 W/m2
10:03 48.7 °F 44.4 °F 30.02 in ENE 6.0 mph 13.0 mph 85 % 0.00 in 90 W/m2
10:08 48.7 °F 44.4 °F 30.02 in ENE 7.0 mph 13.0 mph 85 % 0.00 in 132 W/m2
10:13 48.9 °F 44.6 °F 30.01 in ENE 7.0 mph 11.0 mph 85 % 0.00 in 116 W/m2
10:18 49.1 °F 44.5 °F 30.01 in ENE 6.0 mph 11.0 mph 84 % 0.00 in 163 W/m2
10:23 49.3 °F 44.6 °F 30.01 in ENE 5.0 mph 11.0 mph 84 % 0.00 in 206 W/m2
10:28 49.5 °F 44.5 °F 30.01 in ENE 6.0 mph 11.0 mph 83 % 0.00 in 188 W/m2
10:33 49.6 °F 44.4 °F 30.01 in ENE 5.0 mph 10.0 mph 82 % 0.00 in 163 W/m2
10:38 49.8 °F 44.5 °F 30.01 in ENE 5.0 mph 11.0 mph 82 % 0.00 in 181 W/m2
10:43 50.0 °F 44.4 °F 30.01 in ENE 7.0 mph 15.0 mph 81 % 0.00 in 183 W/m2
10:48 50.0 °F 44.4 °F 30.01 in ENE 7.0 mph 15.0 mph 81 % 0.00 in 120 W/m2
10:53 50.0 °F 44.1 °F 30.01 in ENE 6.0 mph 13.0 mph 80 % 0.00 in 91 W/m2
10:59 50.0 °F 44.1 °F 30.01 in ENE 7.0 mph 15.0 mph 80 % 0.00 in 81 W/m2
11:04 50.0 °F 44.1 °F 30.01 in ENE 8.0 mph 15.0 mph 80 % 0.00 in 172 W/m2
11:09 50.2 °F 44.6 °F 30.01 in ENE 6.0 mph 12.0 mph 81 % 0.00 in 176 W/m2
11:14 50.4 °F 44.4 °F 30.01 in ENE 6.0 mph 13.0 mph 80 % 0.00 in 178 W/m2
11:15 50.4 °F 44.4 °F 30.01 in ENE 6.0 mph 14.0 mph 80 % 0.00 in 169 W/m2
11:20 50.5 °F 44.6 °F 30.01 in ENE 7.0 mph 16.0 mph 80 % 0.00 in 163 W/m2
11:25 50.7 °F 44.4 °F 30.01 in ENE 8.0 mph 16.0 mph 79 % 0.00 in 278 W/m2
11:30 51.1 °F 44.8 °F 30.01 in ENE 7.0 mph 13.0 mph 79 % 0.00 in 221 W/m2
11:35 51.3 °F 45.0 °F 30.01 in ENE 5.0 mph 11.0 mph 79 % 0.00 in 195 W/m2
11:40 51.4 °F 44.8 °F 30.00 in ENE 6.0 mph 13.0 mph 78 % 0.00 in 118 W/m2
11:45 51.3 °F 44.6 °F 30.00 in ENE 6.0 mph 13.0 mph 78 % 0.00 in 114 W/m2
11:50 51.3 °F 44.3 °F 30.00 in ENE 6.0 mph 13.0 mph 77 % 0.00 in 250 W/m2
11:55 51.4 °F 44.5 °F 30.00 in ENE 6.0 mph 13.0 mph 77 % 0.00 in 288 W/m2
12:00 52.0 °F 44.6 °F 30.00 in ENE 5.0 mph 10.0 mph 76 % 0.00 in 246 W/m2
12:05 52.2 °F 44.5 °F 30.00 in ENE 7.0 mph 18.0 mph 75 % 0.00 in 216 W/m2
12:10 52.0 °F 43.9 °F 30.00 in ENE 10.0 mph 18.0 mph 74 % 0.00 in 172 W/m2
12:15 52.0 °F 44.3 °F 30.00 in ENE 8.0 mph 15.0 mph 75 % 0.00 in 225 W/m2
12:17 52.2 °F 44.1 °F 30.00 in ENE 8.0 mph 15.0 mph 74 % 0.00 in 237 W/m2
12:22 52.2 °F 44.1 °F 30.00 in ENE 8.0 mph 15.0 mph 74 % 0.00 in 160 W/m2
12:27 52.2 °F 44.1 °F 30.00 in ENE 7.0 mph 15.0 mph 74 % 0.00 in 130 W/m2
12:32 52.0 °F 43.9 °F 30.00 in ENE 7.0 mph 15.0 mph 74 % 0.00 in 146 W/m2
12:37 51.8 °F 43.8 °F 30.00 in ENE 9.0 mph 16.0 mph 74 % 0.00 in 221 W/m2
12:42 51.8 °F 43.8 °F 30.00 in ENE 8.0 mph 16.0 mph 74 % 0.00 in 207 W/m2
12:47 52.0 °F 43.9 °F 30.00 in ENE 6.0 mph 16.0 mph 74 % 0.00 in 234 W/m2
12:52 52.2 °F 44.1 °F 30.00 in ENE 7.0 mph 16.0 mph 74 % 0.00 in 251 W/m2
12:57 52.3 °F 43.9 °F 30.00 in NE 7.0 mph 16.0 mph 73 % 0.00 in 195 W/m2
13:02 52.3 °F 43.6 °F 30.00 in NE 8.0 mph 16.0 mph 72 % 0.00 in 176 W/m2
13:07 52.3 °F 43.2 °F 30.00 in ENE 8.0 mph 15.0 mph 71 % 0.00 in 151 W/m2
13:12 52.3 °F 43.2 °F 30.00 in ENE 8.0 mph 15.0 mph 71 % 0.00 in 185 W/m2
13:17 52.3 °F 43.6 °F 30.00 in ENE 8.0 mph 15.0 mph 72 % 0.00 in 200 W/m2
13:22 52.3 °F 43.2 °F 30.00 in ENE 8.0 mph 15.0 mph 71 % 0.00 in 186 W/m2
13:27 52.3 °F 43.6 °F 30.00 in NE 8.0 mph 16.0 mph 72 % 0.00 in 165 W/m2
13:32 52.3 °F 43.6 °F 30.00 in NE 7.0 mph 16.0 mph 72 % 0.00 in 107 W/m2
13:37 52.3 °F 43.6 °F 30.00 in ENE 8.0 mph 14.0 mph 72 % 0.00 in 95 W/m2
13:42 52.2 °F 43.8 °F 30.00 in ENE 7.0 mph 14.0 mph 73 % 0.00 in 77 W/m2
13:47 52.2 °F 43.8 °F 30.00 in ENE 6.0 mph 14.0 mph 73 % 0.00 in 97 W/m2
13:53 52.2 °F 44.1 °F 30.00 in ENE 6.0 mph 12.0 mph 74 % 0.00 in 104 W/m2
13:58 52.2 °F 44.1 °F 30.00 in ENE 6.0 mph 12.0 mph 74 % 0.00 in 104 W/m2
14:03 52.2 °F 44.1 °F 30.00 in ENE 7.0 mph 18.0 mph 74 % 0.00 in 74 W/m2
14:08 52.0 °F 44.3 °F 30.00 in ENE 8.0 mph 18.0 mph 75 % 0.00 in 83 W/m2
14:13 52.0 °F 44.6 °F 30.00 in ENE 7.0 mph 15.0 mph 76 % 0.00 in 116 W/m2
14:18 52.0 °F 44.6 °F 30.00 in ENE 7.0 mph 14.0 mph 76 % 0.00 in 120 W/m2
14:23 52.0 °F 44.6 °F 30.00 in ENE 6.0 mph 12.0 mph 76 % 0.00 in 120 W/m2
14:28 52.2 °F 45.2 °F 30.00 in ENE 6.0 mph 15.0 mph 77 % 0.00 in 204 W/m2
14:33 52.2 °F 45.2 °F 30.00 in ENE 6.0 mph 15.0 mph 77 % 0.00 in 113 W/m2
14:38 52.2 °F 44.8 °F 30.00 in ENE 6.0 mph 13.0 mph 76 % 0.00 in 151 W/m2
14:43 52.3 °F 45.0 °F 30.00 in ENE 6.0 mph 13.0 mph 76 % 0.00 in 146 W/m2
14:48 52.3 °F 45.0 °F 30.00 in ENE 5.0 mph 11.0 mph 76 % 0.00 in 162 W/m2
14:53 52.5 °F 45.2 °F 29.99 in ENE 6.0 mph 12.0 mph 76 % 0.00 in 139 W/m2
14:58 52.5 °F 45.2 °F 29.99 in NE 5.0 mph 12.0 mph 76 % 0.00 in 116 W/m2
15:03 52.5 °F 45.2 °F 29.99 in ENE 5.0 mph 12.0 mph 76 % 0.00 in 218 W/m2
15:08 52.9 °F 45.5 °F 30.00 in ENE 5.0 mph 12.0 mph 76 % 0.00 in 121 W/m2
15:13 53.1 °F 45.7 °F 30.00 in ENE 4.0 mph 9.0 mph 76 % 0.00 in 98 W/m2
15:18 52.9 °F 45.5 °F 30.00 in ENE 5.0 mph 13.0 mph 76 % 0.00 in 90 W/m2
15:23 52.9 °F 45.2 °F 30.00 in ENE 6.0 mph 13.0 mph 75 % 0.00 in 102 W/m2
15:28 52.9 °F 45.2 °F 30.00 in ENE 7.0 mph 13.0 mph 75 % 0.00 in 146 W/m2
15:33 52.9 °F 45.2 °F 30.00 in ENE 7.0 mph 13.0 mph 75 % 0.00 in 151 W/m2
15:38 52.9 °F 45.2 °F 30.00 in ENE 7.0 mph 13.0 mph 75 % 0.00 in 146 W/m2
15:43 53.1 °F 45.3 °F 30.00 in ENE 7.0 mph 13.0 mph 75 % 0.00 in 118 W/m2
15:48 53.1 °F 45.3 °F 30.00 in ENE 7.0 mph 13.0 mph 75 % 0.00 in 81 W/m2
15:53 52.9 °F 45.5 °F 30.00 in ENE 7.0 mph 13.0 mph 76 % 0.00 in 63 W/m2
15:58 52.7 °F 45.3 °F 30.00 in ENE 7.0 mph 14.0 mph 76 % 0.00 in 116 W/m2
16:03 52.5 °F 45.5 °F 30.00 in ENE 6.0 mph 14.0 mph 77 % 0.00 in 127 W/m2
16:08 52.5 °F 45.2 °F 30.00 in NE 7.0 mph 15.0 mph 76 % 0.00 in 93 W/m2
16:13 52.5 °F 45.5 °F 30.00 in ENE 8.0 mph 15.0 mph 77 % 0.00 in 156 W/m2
16:18 52.5 °F 45.5 °F 30.00 in ENE 7.0 mph 15.0 mph 77 % 0.00 in 54 W/m2
16:23 52.5 °F 45.5 °F 30.00 in ENE 6.0 mph 11.0 mph 77 % 0.00 in 44 W/m2
16:28 52.3 °F 45.3 °F 30.00 in ENE 6.0 mph 11.0 mph 77 % 0.00 in 44 W/m2
16:33 52.3 °F 45.7 °F 30.00 in ENE 6.0 mph 12.0 mph 78 % 0.00 in 53 W/m2
16:38 52.3 °F 45.7 °F 30.00 in ENE 6.0 mph 15.0 mph 78 % 0.00 in 49 W/m2
16:43 52.3 °F 45.7 °F 30.00 in ENE 7.0 mph 16.0 mph 78 % 0.00 in 102 W/m2
16:48 52.3 °F 45.7 °F 30.00 in ENE 6.0 mph 16.0 mph 78 % 0.00 in 125 W/m2
16:53 52.5 °F 45.9 °F 30.00 in ENE 6.0 mph 13.0 mph 78 % 0.00 in 146 W/m2
16:58 52.5 °F 45.9 °F 30.00 in East 7.0 mph 12.0 mph 78 % 0.00 in 156 W/m2
17:03 52.7 °F 46.0 °F 30.00 in East 5.0 mph 11.0 mph 78 % 0.00 in 167 W/m2
17:09 52.9 °F 45.9 °F 30.00 in East 5.0 mph 12.0 mph 77 % 0.00 in 123 W/m2
17:14 52.9 °F 45.5 °F 30.00 in East 6.0 mph 12.0 mph 76 % 0.00 in 137 W/m2
17:19 52.9 °F 45.5 °F 30.00 in East 6.0 mph 11.0 mph 76 % 0.00 in 90 W/m2
17:24 52.9 °F 45.9 °F 30.00 in East 6.0 mph 13.0 mph 77 % 0.00 in 127 W/m2
17:29 52.9 °F 45.9 °F 30.01 in East 5.0 mph 13.0 mph 77 % 0.00 in 146 W/m2
17:34 52.9 °F 46.2 °F 30.00 in East 5.0 mph 12.0 mph 78 % 0.00 in 114 W/m2
17:39 52.7 °F 45.7 °F 30.01 in ENE 6.0 mph 12.0 mph 77 % 0.00 in 107 W/m2
17:44 52.3 °F 45.3 °F 30.01 in ENE 7.0 mph 12.0 mph 77 % 0.00 in 81 W/m2
17:49 52.3 °F 45.7 °F 30.01 in East 6.0 mph 11.0 mph 78 % 0.00 in 72 W/m2
17:54 52.2 °F 45.5 °F 30.01 in East 5.0 mph 12.0 mph 78 % 0.00 in 91 W/m2
17:55 52.2 °F 45.5 °F 30.01 in East 5.0 mph 12.0 mph 78 % 0.00 in 98 W/m2
18:00 52.0 °F 45.7 °F 30.01 in ENE 6.0 mph 12.0 mph 79 % 0.00 in 116 W/m2
18:05 52.0 °F 45.7 °F 30.01 in ENE 5.0 mph 10.0 mph 79 % 0.00 in 109 W/m2
18:10 52.0 °F 45.7 °F 30.01 in ENE 6.0 mph 11.0 mph 79 % 0.00 in 88 W/m2
18:15 52.0 °F 45.7 °F 30.01 in ENE 7.0 mph 11.0 mph 79 % 0.00 in 107 W/m2
18:20 52.0 °F 45.7 °F 30.01 in ENE 7.0 mph 12.0 mph 79 % 0.00 in 98 W/m2
18:25 51.8 °F 45.8 °F 30.01 in ENE 7.0 mph 13.0 mph 80 % 0.00 in 81 W/m2
18:30 51.6 °F 45.7 °F 30.02 in ENE 6.0 mph 13.0 mph 80 % 0.00 in 60 W/m2
18:35 51.6 °F 45.7 °F 30.02 in ENE 7.0 mph 11.0 mph 80 % 0.00 in 56 W/m2
18:40 51.6 °F 45.7 °F 30.02 in ENE 6.0 mph 11.0 mph 80 % 0.00 in 62 W/m2
18:45 51.6 °F 45.7 °F 30.02 in ENE 6.0 mph 12.0 mph 80 % 0.00 in 69 W/m2
18:50 51.4 °F 45.5 °F 30.02 in ENE 7.0 mph 13.0 mph 80 % 0.00 in 44 W/m2
18:55 51.4 °F 45.8 °F 30.02 in ENE 6.0 mph 13.0 mph 81 % 0.00 in 40 W/m2
19:00 51.3 °F 45.6 °F 30.02 in ENE 6.0 mph 11.0 mph 81 % 0.00 in 49 W/m2
19:05 51.3 °F 45.6 °F 30.02 in ENE 7.0 mph 12.0 mph 81 % 0.00 in 37 W/m2
19:10 51.1 °F 45.5 °F 30.02 in ENE 7.0 mph 12.0 mph 81 % 0.00 in 46 W/m2
19:15 51.1 °F 45.5 °F 30.02 in ENE 6.0 mph 11.0 mph 81 % 0.00 in 47 W/m2
19:20 51.1 °F 45.5 °F 30.02 in ENE 6.0 mph 11.0 mph 81 % 0.00 in 39 W/m2
19:25 50.9 °F 45.6 °F 30.02 in NE 6.0 mph 11.0 mph 82 % 0.00 in 33 W/m2
19:30 50.7 °F 45.4 °F 30.02 in NE 6.0 mph 11.0 mph 82 % 0.00 in 33 W/m2
19:35 50.7 °F 45.4 °F 30.03 in ENE 4.0 mph 10.0 mph 82 % 0.00 in 35 W/m2
19:40 50.7 °F 45.7 °F 30.03 in ENE 3.0 mph 9.0 mph 83 % 0.00 in 33 W/m2
19:45 50.5 °F 45.6 °F 30.03 in ENE 5.0 mph 11.0 mph 83 % 0.00 in 30 W/m2
19:51 50.5 °F 45.6 °F 30.03 in ENE 6.0 mph 11.0 mph 83 % 0.00 in 26 W/m2
19:56 50.4 °F 45.7 °F 30.03 in NE 5.0 mph 10.0 mph 84 % 0.00 in 25 W/m2
20:01 50.4 °F 45.7 °F 30.03 in NE 5.0 mph 10.0 mph 84 % 0.00 in 25 W/m2
20:06 50.4 °F 45.7 °F 30.03 in NE 4.0 mph 9.0 mph 84 % 0.00 in 21 W/m2
20:11 50.2 °F 45.5 °F 30.03 in NE 4.0 mph 12.0 mph 84 % 0.00 in 19 W/m2
20:16 50.2 °F 45.5 °F 30.03 in NE 5.0 mph 12.0 mph 84 % 0.00 in 14 W/m2
20:21 50.2 °F 45.8 °F 30.04 in NE 4.0 mph 12.0 mph 85 % 0.00 in 11 W/m2
20:26 50.0 °F 45.7 °F 30.04 in NE 4.0 mph 12.0 mph 85 % 0.00 in 9 W/m2
20:31 49.8 °F 45.5 °F 30.04 in NE 4.0 mph 11.0 mph 85 % 0.00 in 7 W/m2
20:36 49.8 °F 45.5 °F 30.04 in NE 5.0 mph 11.0 mph 85 % 0.00 in 7 W/m2
20:41 49.8 °F 45.5 °F 30.04 in NE 4.0 mph 11.0 mph 85 % 0.00 in 5 W/m2
20:46 49.6 °F 45.3 °F 30.05 in NE 5.0 mph 9.0 mph 85 % 0.00 in 0 W/m2
20:51 49.6 °F 45.3 °F 30.05 in NE 6.0 mph 10.0 mph 85 % 0.00 in 0 W/m2
20:56 49.6 °F 45.6 °F 30.05 in NE 4.0 mph 10.0 mph 86 % 0.00 in 0 W/m2
21:01 49.6 °F 45.6 °F 30.05 in NE 3.0 mph 11.0 mph 86 % 0.00 in 0 W/m2
21:06 49.6 °F 45.6 °F 30.05 in NE 3.0 mph 11.0 mph 86 % 0.00 in 0 W/m2
21:11 49.6 °F 45.6 °F 30.05 in NE 3.0 mph 11.0 mph 86 % 0.00 in 0 W/m2
21:16 49.5 °F 45.4 °F 30.06 in NE 4.0 mph 11.0 mph 86 % 0.00 in 0 W/m2
21:21 49.5 °F 45.4 °F 30.06 in NE 3.0 mph 9.0 mph 86 % 0.00 in 0 W/m2
21:26 49.5 °F 45.4 °F 30.06 in NE 4.0 mph 11.0 mph 86 % 0.00 in 0 W/m2
21:31 49.5 °F 45.4 °F 30.06 in NE 5.0 mph 11.0 mph 86 % 0.00 in 0 W/m2
21:36 49.5 °F 45.4 °F 30.06 in NE 3.0 mph 9.0 mph 86 % 0.00 in 0 W/m2
21:41 49.5 °F 45.4 °F 30.06 in NNE 3.0 mph 8.0 mph 86 % 0.00 in 0 W/m2
21:46 49.3 °F 45.3 °F 30.06 in NE 3.0 mph 9.0 mph 86 % 0.00 in 0 W/m2
21:51 49.3 °F 45.3 °F 30.06 in NE 4.0 mph 9.0 mph 86 % 0.00 in 0 W/m2
21:56 49.3 °F 45.3 °F 30.06 in NE 4.0 mph 8.0 mph 86 % 0.00 in 0 W/m2
22:02 49.3 °F 45.3 °F 30.06 in ENE 3.0 mph 8.0 mph 86 % 0.00 in 0 W/m2
22:07 49.3 °F 45.3 °F 30.07 in ENE 1.0 mph 5.0 mph 86 % 0.00 in 0 W/m2
22:12 49.3 °F 45.3 °F 30.07 in ENE 1.0 mph 5.0 mph 86 % 0.00 in 0 W/m2
22:17 49.1 °F 45.4 °F 30.07 in NE 2.0 mph 5.0 mph 87 % 0.00 in 0 W/m2
22:21 49.1 °F 45.4 °F 30.07 in NE 3.0 mph 6.0 mph 87 % 0.00 in 0 W/m2
22:27 49.1 °F 45.4 °F 30.07 in NE 2.0 mph 6.0 mph 87 % 0.00 in 0 W/m2
22:32 49.1 °F 45.4 °F 30.07 in NNE 2.0 mph 6.0 mph 87 % 0.00 in 0 W/m2
22:37 48.9 °F 45.2 °F 30.07 in NNE 1.0 mph 5.0 mph 87 % 0.00 in 0 W/m2
22:42 48.9 °F 45.2 °F 30.07 in NE 1.0 mph 5.0 mph 87 % 0.00 in 0 W/m2
22:47 48.9 °F 45.2 °F 30.07 in NNE 2.0 mph 6.0 mph 87 % 0.00 in 0 W/m2
22:52 48.9 °F 45.2 °F 30.08 in NNE 2.0 mph 6.0 mph 87 % 0.00 in 0 W/m2
22:57 48.9 °F 45.2 °F 30.08 in NE 1.0 mph 6.0 mph 87 % 0.00 in 0 W/m2
23:02 48.9 °F 45.2 °F 30.08 in NE 1.0 mph 7.0 mph 87 % 0.00 in 0 W/m2
23:07 48.9 °F 45.2 °F 30.08 in NE 3.0 mph 7.0 mph 87 % 0.00 in 0 W/m2
23:12 48.9 °F 45.2 °F 30.08 in NNE 2.0 mph 6.0 mph 87 % 0.00 in 0 W/m2
23:17 49.1 °F 45.4 °F 30.08 in North 2.0 mph 8.0 mph 87 % 0.00 in 0 W/m2
23:22 49.1 °F 45.4 °F 30.08 in North 3.0 mph 8.0 mph 87 % 0.00 in 0 W/m2
23:27 49.1 °F 45.4 °F 30.08 in North 4.0 mph 8.0 mph 87 % 0.00 in 0 W/m2
23:32 48.9 °F 44.9 °F 30.08 in North 4.0 mph 8.0 mph 86 % 0.00 in 0 W/m2
23:37 48.9 °F 44.9 °F 30.08 in North 4.0 mph 8.0 mph 86 % 0.00 in 0 W/m2
23:42 48.9 °F 44.9 °F 30.08 in North 3.0 mph 9.0 mph 86 % 0.00 in 0 W/m2
23:47 48.9 °F 44.6 °F 30.08 in North 3.0 mph 10.0 mph 85 % 0.00 in 0 W/m2
23:52 48.9 °F 44.6 °F 30.08 in North 3.0 mph 10.0 mph 85 % 0.00 in 0 W/m2
23:57 48.9 °F 44.6 °F 30.08 in North 2.0 mph 6.0 mph 85 % 0.00 in 0 W/m2
Delerius-Weather
Compliments of Weather Underground - 2.25 mb

Data updates at regular intervals.